North Palm Beach, FL (33408)

3:03 PM EDT on July 06, 2015 (GMT -0400)
Juno Isles | | Change Station
CLOSE
Current Station
Personal Weather Station
Location: N Palm Beach, FL
Elevation: 39 ft
Nearby Weather Stations

Elev 39 ft 26.86 °N, 80.06 °W | Updated 15 minutes ago

Mostly Cloudy
Mostly Cloudy
90.3 °F
Feels Like 102 °F
N
5.3
Wind Variable Wind from SSE

Today
High -- | Low -- °F
--% Chance of Precip.
Yesterday
High -- | Low -- °F
Precip. -- in
6:31 AM 8:17 PM
Waning Gibbous, 73% visible
Pressure 30.16 in
Visibility 10.0 miles
Clouds Scattered Clouds 3900 ft
Mostly Cloudy 16000 ft
Mostly Cloudy 25000 ft
Heat Index 102 °F
Dew Point 76 °F
Humidity 63%
Rainfall 0.00 in
Snow Depth Not available.
UV 8 out of 12
Pollen 4.60 out of 12
Air Quality Not available.
Flu Activity Not available.
METAR KPBI 061853Z 11010KT 10SM SCT039CB BKN160 BKN250 31/23 A3016 RMK AO2 TSE26 SLP212 CB SW MOV NE CB DSNT S-SW T03060233 $

More Conditions Fewer Conditions

Pressure 30.16 in
Visibility 10.0 miles
Clouds Scattered Clouds 3900 ft
Mostly Cloudy 16000 ft
Mostly Cloudy 25000 ft
Heat Index 102 °F
Dew Point 76 °F
Humidity 63%
Rainfall 0.00 in
Snow Depth Not available.
UV 8 out of 12
Pollen 4.60 out of 12
Air Quality Not available.
Flu Activity Not available.
METAR KPBI 061853Z 11010KT 10SM SCT039CB BKN160 BKN250 31/23 A3016 RMK AO2 TSE26 SLP212 CB SW MOV NE CB DSNT S-SW T03060233 $

More Conditions Fewer Conditions

10-Day Weather Forecast

×

Almanac

Astronomy

Jul. 06, 2015 Rise Set
Actual Time
Civil Twilight
Nautical Twilight
Astronomical Twilight
Moon
Length of Visible Light
Length of Day
Tomorrow will be .
, % of the Moon is Illuminated

Today's Extremes

State Highs State Lows

Community

WunderPhotos

Upload Photos

1,835,616 photos uploaded!

WunderBlogs® & News

Nearby

Air Quality

  Air Quality AQ Index Pollutant
Not available.

Snow Depth

Station Depth Elevation

Earthquake Activity

City Distance Mag. Time & Date
Minimum magnitude displayed is 2.5.

Coastal Water Temperatures

Place Temperature

Stations

Nearby Weather Stations

Station Location Temp. Windchill Dew Point Humidity Wind Precip. Elev Updated Type